<?xml version="1.0" encoding="UTF-8" standalone="no" ?>
<gpx xmlns="http://www.topografix.com/GPX/1/1" xmlns:xsi="http://www.w3.org/2001/XMLSchema-instance" xsi:schemaLocation="http://www.topografix.com/GPX/1/1 http://www.topografix.com/GPX/1/1/gpx.xsd" version="1.1" creator="VisuGPX - https://www.visugpx.com">
  <metadata>
    <name>14879489-25 km</name>
  </metadata>
  <trk>
    <name><![CDATA[14879489-25 km]]></name>
    <trkseg>
      <trkpt lat="47.04522" lon="-0.81794">
        <ele>118</ele>
        <time>2022-09-19T11:40:36Z</time>
      </trkpt>
      <trkpt lat="47.04545" lon="-0.81799">
        <ele>119</ele>
        <time>2022-09-19T11:40:41Z</time>
      </trkpt>
      <trkpt lat="47.04538" lon="-0.81886">
        <ele>120</ele>
        <time>2022-09-19T11:40:55Z</time>
      </trkpt>
      <trkpt lat="47.04536" lon="-0.81959">
        <ele>119</ele>
        <time>2022-09-19T11:41:07Z</time>
      </trkpt>
      <trkpt lat="47.04557" lon="-0.82048">
        <ele>116</ele>
        <time>2022-09-19T11:41:22Z</time>
      </trkpt>
      <trkpt lat="47.04587" lon="-0.82121">
        <ele>115</ele>
        <time>2022-09-19T11:41:36Z</time>
      </trkpt>
      <trkpt lat="47.04594" lon="-0.82158">
        <ele>114</ele>
        <time>2022-09-19T11:41:42Z</time>
      </trkpt>
      <trkpt lat="47.04626" lon="-0.82241">
        <ele>116</ele>
        <time>2022-09-19T11:41:57Z</time>
      </trkpt>
      <trkpt lat="47.04653" lon="-0.82288">
        <ele>118</ele>
        <time>2022-09-19T11:42:07Z</time>
      </trkpt>
      <trkpt lat="47.04675" lon="-0.82305">
        <ele>120</ele>
        <time>2022-09-19T11:42:12Z</time>
      </trkpt>
      <trkpt lat="47.04721" lon="-0.82379">
        <ele>121</ele>
        <time>2022-09-19T11:42:28Z</time>
      </trkpt>
      <trkpt lat="47.04755" lon="-0.82438">
        <ele>122</ele>
        <time>2022-09-19T11:42:41Z</time>
      </trkpt>
      <trkpt lat="47.04764" lon="-0.82496">
        <ele>122</ele>
        <time>2022-09-19T11:42:50Z</time>
      </trkpt>
      <trkpt lat="47.0475" lon="-0.82595">
        <ele>124</ele>
        <time>2022-09-19T11:43:06Z</time>
      </trkpt>
      <trkpt lat="47.0473" lon="-0.82679">
        <ele>128</ele>
        <time>2022-09-19T11:43:20Z</time>
      </trkpt>
      <trkpt lat="47.04728" lon="-0.82826">
        <ele>132</ele>
        <time>2022-09-19T11:43:44Z</time>
      </trkpt>
      <trkpt lat="47.04741" lon="-0.82847">
        <ele>133</ele>
        <time>2022-09-19T11:43:48Z</time>
      </trkpt>
      <trkpt lat="47.04771" lon="-0.82905">
        <ele>134</ele>
        <time>2022-09-19T11:44:00Z</time>
      </trkpt>
      <trkpt lat="47.04808" lon="-0.82951">
        <ele>135</ele>
        <time>2022-09-19T11:44:11Z</time>
      </trkpt>
      <trkpt lat="47.0484" lon="-0.83013">
        <ele>134</ele>
        <time>2022-09-19T11:44:24Z</time>
      </trkpt>
      <trkpt lat="47.04881" lon="-0.83081">
        <ele>134</ele>
        <time>2022-09-19T11:44:38Z</time>
      </trkpt>
      <trkpt lat="47.04873" lon="-0.83159">
        <ele>134</ele>
        <time>2022-09-19T11:44:51Z</time>
      </trkpt>
      <trkpt lat="47.04916" lon="-0.83244">
        <ele>135</ele>
        <time>2022-09-19T11:45:07Z</time>
      </trkpt>
      <trkpt lat="47.04934" lon="-0.83285">
        <ele>135</ele>
        <time>2022-09-19T11:45:15Z</time>
      </trkpt>
      <trkpt lat="47.04948" lon="-0.8331">
        <ele>135</ele>
        <time>2022-09-19T11:45:20Z</time>
      </trkpt>
      <trkpt lat="47.0494" lon="-0.83349">
        <ele>134</ele>
        <time>2022-09-19T11:45:27Z</time>
      </trkpt>
      <trkpt lat="47.0495" lon="-0.83391">
        <ele>134</ele>
        <time>2022-09-19T11:45:34Z</time>
      </trkpt>
      <trkpt lat="47.04912" lon="-0.83432">
        <ele>132</ele>
        <time>2022-09-19T11:45:45Z</time>
      </trkpt>
      <trkpt lat="47.0493" lon="-0.83509">
        <ele>132</ele>
        <time>2022-09-19T11:45:58Z</time>
      </trkpt>
      <trkpt lat="47.0507" lon="-0.83418">
        <ele>136</ele>
        <time>2022-09-19T11:46:34Z</time>
      </trkpt>
      <trkpt lat="47.05159" lon="-0.83315">
        <ele>136</ele>
        <time>2022-09-19T11:47:00Z</time>
      </trkpt>
      <trkpt lat="47.05253" lon="-0.83222">
        <ele>138</ele>
        <time>2022-09-19T11:47:27Z</time>
      </trkpt>
      <trkpt lat="47.05277" lon="-0.83182">
        <ele>138</ele>
        <time>2022-09-19T11:47:35Z</time>
      </trkpt>
      <trkpt lat="47.05291" lon="-0.83139">
        <ele>139</ele>
        <time>2022-09-19T11:47:43Z</time>
      </trkpt>
      <trkpt lat="47.05301" lon="-0.83091">
        <ele>140</ele>
        <time>2022-09-19T11:47:51Z</time>
      </trkpt>
      <trkpt lat="47.05304" lon="-0.83037">
        <ele>140</ele>
        <time>2022-09-19T11:47:59Z</time>
      </trkpt>
      <trkpt lat="47.05302" lon="-0.82989">
        <ele>141</ele>
        <time>2022-09-19T11:48:07Z</time>
      </trkpt>
      <trkpt lat="47.05334" lon="-0.82958">
        <ele>142</ele>
        <time>2022-09-19T11:48:16Z</time>
      </trkpt>
      <trkpt lat="47.05454" lon="-0.82889">
        <ele>142</ele>
        <time>2022-09-19T11:48:46Z</time>
      </trkpt>
      <trkpt lat="47.05454" lon="-0.8288">
        <ele>142</ele>
        <time>2022-09-19T11:48:47Z</time>
      </trkpt>
      <trkpt lat="47.05574" lon="-0.82822">
        <ele>144</ele>
        <time>2022-09-19T11:49:17Z</time>
      </trkpt>
      <trkpt lat="47.05596" lon="-0.82912">
        <ele>143</ele>
        <time>2022-09-19T11:49:32Z</time>
      </trkpt>
      <trkpt lat="47.05642" lon="-0.83039">
        <ele>143</ele>
        <time>2022-09-19T11:49:55Z</time>
      </trkpt>
      <trkpt lat="47.05674" lon="-0.83133">
        <ele>143</ele>
        <time>2022-09-19T11:50:12Z</time>
      </trkpt>
      <trkpt lat="47.05687" lon="-0.83198">
        <ele>142</ele>
        <time>2022-09-19T11:50:22Z</time>
      </trkpt>
      <trkpt lat="47.05704" lon="-0.83292">
        <ele>141</ele>
        <time>2022-09-19T11:50:38Z</time>
      </trkpt>
      <trkpt lat="47.05695" lon="-0.83439">
        <ele>142</ele>
        <time>2022-09-19T11:51:01Z</time>
      </trkpt>
      <trkpt lat="47.05698" lon="-0.83496">
        <ele>141</ele>
        <time>2022-09-19T11:51:11Z</time>
      </trkpt>
      <trkpt lat="47.05719" lon="-0.83562">
        <ele>141</ele>
        <time>2022-09-19T11:51:22Z</time>
      </trkpt>
      <trkpt lat="47.05859" lon="-0.8339">
        <ele>145</ele>
        <time>2022-09-19T11:52:05Z</time>
      </trkpt>
      <trkpt lat="47.05939" lon="-0.83305">
        <ele>146</ele>
        <time>2022-09-19T11:52:28Z</time>
      </trkpt>
      <trkpt lat="47.06026" lon="-0.83186">
        <ele>147</ele>
        <time>2022-09-19T11:52:56Z</time>
      </trkpt>
      <trkpt lat="47.06101" lon="-0.83014">
        <ele>148</ele>
        <time>2022-09-19T11:53:28Z</time>
      </trkpt>
      <trkpt lat="47.06126" lon="-0.83152">
        <ele>147</ele>
        <time>2022-09-19T11:53:51Z</time>
      </trkpt>
      <trkpt lat="47.06336" lon="-0.83077">
        <ele>141</ele>
        <time>2022-09-19T11:54:41Z</time>
      </trkpt>
      <trkpt lat="47.06406" lon="-0.83046">
        <ele>140</ele>
        <time>2022-09-19T11:54:58Z</time>
      </trkpt>
      <trkpt lat="47.06433" lon="-0.83065">
        <ele>140</ele>
        <time>2022-09-19T11:55:05Z</time>
      </trkpt>
      <trkpt lat="47.0645" lon="-0.83125">
        <ele>139</ele>
        <time>2022-09-19T11:55:16Z</time>
      </trkpt>
      <trkpt lat="47.06476" lon="-0.83127">
        <ele>138</ele>
        <time>2022-09-19T11:55:22Z</time>
      </trkpt>
      <trkpt lat="47.06505" lon="-0.83254">
        <ele>137</ele>
        <time>2022-09-19T11:55:43Z</time>
      </trkpt>
      <trkpt lat="47.06532" lon="-0.83281">
        <ele>136</ele>
        <time>2022-09-19T11:55:51Z</time>
      </trkpt>
      <trkpt lat="47.06604" lon="-0.83267">
        <ele>134</ele>
        <time>2022-09-19T11:56:08Z</time>
      </trkpt>
      <trkpt lat="47.06732" lon="-0.83257">
        <ele>131</ele>
        <time>2022-09-19T11:56:38Z</time>
      </trkpt>
      <trkpt lat="47.06776" lon="-0.83274">
        <ele>131</ele>
        <time>2022-09-19T11:56:48Z</time>
      </trkpt>
      <trkpt lat="47.06798" lon="-0.83247">
        <ele>129</ele>
        <time>2022-09-19T11:56:55Z</time>
      </trkpt>
      <trkpt lat="47.06794" lon="-0.83203">
        <ele>131</ele>
        <time>2022-09-19T11:57:02Z</time>
      </trkpt>
      <trkpt lat="47.06922" lon="-0.83193">
        <ele>126</ele>
        <time>2022-09-19T11:57:32Z</time>
      </trkpt>
      <trkpt lat="47.07163" lon="-0.83154">
        <ele>123</ele>
        <time>2022-09-19T11:58:28Z</time>
      </trkpt>
      <trkpt lat="47.07263" lon="-0.83141">
        <ele>119</ele>
        <time>2022-09-19T11:58:52Z</time>
      </trkpt>
      <trkpt lat="47.0733" lon="-0.8315">
        <ele>118</ele>
        <time>2022-09-19T11:59:08Z</time>
      </trkpt>
      <trkpt lat="47.0741" lon="-0.8318">
        <ele>117</ele>
        <time>2022-09-19T11:59:27Z</time>
      </trkpt>
      <trkpt lat="47.07557" lon="-0.83135">
        <ele>117</ele>
        <time>2022-09-19T12:00:02Z</time>
      </trkpt>
      <trkpt lat="47.0763" lon="-0.83095">
        <ele>115</ele>
        <time>2022-09-19T12:00:20Z</time>
      </trkpt>
      <trkpt lat="47.07664" lon="-0.83144">
        <ele>113</ele>
        <time>2022-09-19T12:00:31Z</time>
      </trkpt>
      <trkpt lat="47.07655" lon="-0.83088">
        <ele>114</ele>
        <time>2022-09-19T12:00:40Z</time>
      </trkpt>
      <trkpt lat="47.07621" lon="-0.83044">
        <ele>116</ele>
        <time>2022-09-19T12:00:51Z</time>
      </trkpt>
      <trkpt lat="47.07588" lon="-0.82957">
        <ele>117</ele>
        <time>2022-09-19T12:01:07Z</time>
      </trkpt>
      <trkpt lat="47.07553" lon="-0.82868">
        <ele>120</ele>
        <time>2022-09-19T12:01:23Z</time>
      </trkpt>
      <trkpt lat="47.07484" lon="-0.82803">
        <ele>122</ele>
        <time>2022-09-19T12:01:42Z</time>
      </trkpt>
      <trkpt lat="47.07439" lon="-0.82727">
        <ele>123</ele>
        <time>2022-09-19T12:01:58Z</time>
      </trkpt>
      <trkpt lat="47.07426" lon="-0.82662">
        <ele>124</ele>
        <time>2022-09-19T12:02:09Z</time>
      </trkpt>
      <trkpt lat="47.07426" lon="-0.82555">
        <ele>123</ele>
        <time>2022-09-19T12:02:26Z</time>
      </trkpt>
      <trkpt lat="47.07408" lon="-0.8245">
        <ele>123</ele>
        <time>2022-09-19T12:02:43Z</time>
      </trkpt>
      <trkpt lat="47.07398" lon="-0.82348">
        <ele>123</ele>
        <time>2022-09-19T12:03:00Z</time>
      </trkpt>
      <trkpt lat="47.07439" lon="-0.8226">
        <ele>122</ele>
        <time>2022-09-19T12:03:17Z</time>
      </trkpt>
      <trkpt lat="47.07483" lon="-0.82175">
        <ele>122</ele>
        <time>2022-09-19T12:03:34Z</time>
      </trkpt>
      <trkpt lat="47.07507" lon="-0.82088">
        <ele>126</ele>
        <time>2022-09-19T12:03:49Z</time>
      </trkpt>
      <trkpt lat="47.07518" lon="-0.82019">
        <ele>126</ele>
        <time>2022-09-19T12:04:00Z</time>
      </trkpt>
      <trkpt lat="47.07517" lon="-0.81875">
        <ele>128</ele>
        <time>2022-09-19T12:04:23Z</time>
      </trkpt>
      <trkpt lat="47.07517" lon="-0.81821">
        <ele>128</ele>
        <time>2022-09-19T12:04:31Z</time>
      </trkpt>
      <trkpt lat="47.07534" lon="-0.81723">
        <ele>130</ele>
        <time>2022-09-19T12:04:48Z</time>
      </trkpt>
      <trkpt lat="47.07513" lon="-0.81613">
        <ele>129</ele>
        <time>2022-09-19T12:05:06Z</time>
      </trkpt>
      <trkpt lat="47.07523" lon="-0.81517">
        <ele>130</ele>
        <time>2022-09-19T12:05:21Z</time>
      </trkpt>
      <trkpt lat="47.07454" lon="-0.81505">
        <ele>128</ele>
        <time>2022-09-19T12:05:37Z</time>
      </trkpt>
      <trkpt lat="47.0744" lon="-0.81263">
        <ele>129</ele>
        <time>2022-09-19T12:06:16Z</time>
      </trkpt>
      <trkpt lat="47.07424" lon="-0.80986">
        <ele>129</ele>
        <time>2022-09-19T12:07:00Z</time>
      </trkpt>
      <trkpt lat="47.07423" lon="-0.80888">
        <ele>130</ele>
        <time>2022-09-19T12:07:16Z</time>
      </trkpt>
      <trkpt lat="47.07434" lon="-0.80758">
        <ele>133</ele>
        <time>2022-09-19T12:07:37Z</time>
      </trkpt>
      <trkpt lat="47.0744" lon="-0.80682">
        <ele>135</ele>
        <time>2022-09-19T12:07:49Z</time>
      </trkpt>
      <trkpt lat="47.07473" lon="-0.8072">
        <ele>136</ele>
        <time>2022-09-19T12:07:59Z</time>
      </trkpt>
      <trkpt lat="47.07547" lon="-0.80843">
        <ele>138</ele>
        <time>2022-09-19T12:08:25Z</time>
      </trkpt>
      <trkpt lat="47.07574" lon="-0.80869">
        <ele>139</ele>
        <time>2022-09-19T12:08:32Z</time>
      </trkpt>
      <trkpt lat="47.07613" lon="-0.8084">
        <ele>141</ele>
        <time>2022-09-19T12:08:42Z</time>
      </trkpt>
      <trkpt lat="47.07702" lon="-0.8084">
        <ele>143</ele>
        <time>2022-09-19T12:09:03Z</time>
      </trkpt>
      <trkpt lat="47.07749" lon="-0.80856">
        <ele>143</ele>
        <time>2022-09-19T12:09:14Z</time>
      </trkpt>
      <trkpt lat="47.07854" lon="-0.80868">
        <ele>148</ele>
        <time>2022-09-19T12:09:39Z</time>
      </trkpt>
      <trkpt lat="47.07901" lon="-0.80881">
        <ele>147</ele>
        <time>2022-09-19T12:09:50Z</time>
      </trkpt>
      <trkpt lat="47.07963" lon="-0.80876">
        <ele>147</ele>
        <time>2022-09-19T12:10:05Z</time>
      </trkpt>
      <trkpt lat="47.08046" lon="-0.80782">
        <ele>147</ele>
        <time>2022-09-19T12:10:29Z</time>
      </trkpt>
      <trkpt lat="47.08135" lon="-0.80703">
        <ele>143</ele>
        <time>2022-09-19T12:10:54Z</time>
      </trkpt>
      <trkpt lat="47.08326" lon="-0.80618">
        <ele>143</ele>
        <time>2022-09-19T12:11:40Z</time>
      </trkpt>
      <trkpt lat="47.0845" lon="-0.8062">
        <ele>142</ele>
        <time>2022-09-19T12:12:09Z</time>
      </trkpt>
      <trkpt lat="47.08487" lon="-0.80618">
        <ele>141</ele>
        <time>2022-09-19T12:12:18Z</time>
      </trkpt>
      <trkpt lat="47.0859" lon="-0.80604">
        <ele>137</ele>
        <time>2022-09-19T12:12:42Z</time>
      </trkpt>
      <trkpt lat="47.08724" lon="-0.80581">
        <ele>131</ele>
        <time>2022-09-19T12:13:13Z</time>
      </trkpt>
      <trkpt lat="47.08779" lon="-0.8054">
        <ele>128</ele>
        <time>2022-09-19T12:13:28Z</time>
      </trkpt>
      <trkpt lat="47.08819" lon="-0.80504">
        <ele>127</ele>
        <time>2022-09-19T12:13:39Z</time>
      </trkpt>
      <trkpt lat="47.08833" lon="-0.80458">
        <ele>128</ele>
        <time>2022-09-19T12:13:47Z</time>
      </trkpt>
      <trkpt lat="47.08874" lon="-0.80414">
        <ele>129</ele>
        <time>2022-09-19T12:13:59Z</time>
      </trkpt>
      <trkpt lat="47.08968" lon="-0.80329">
        <ele>132</ele>
        <time>2022-09-19T12:14:24Z</time>
      </trkpt>
      <trkpt lat="47.09026" lon="-0.80279">
        <ele>134</ele>
        <time>2022-09-19T12:14:40Z</time>
      </trkpt>
      <trkpt lat="47.09073" lon="-0.80222">
        <ele>135</ele>
        <time>2022-09-19T12:14:54Z</time>
      </trkpt>
      <trkpt lat="47.091" lon="-0.80151">
        <ele>136</ele>
        <time>2022-09-19T12:15:07Z</time>
      </trkpt>
      <trkpt lat="47.09131" lon="-0.80118">
        <ele>136</ele>
        <time>2022-09-19T12:15:16Z</time>
      </trkpt>
      <trkpt lat="47.0918" lon="-0.80174">
        <ele>136</ele>
        <time>2022-09-19T12:15:31Z</time>
      </trkpt>
      <trkpt lat="47.09234" lon="-0.80007">
        <ele>135</ele>
        <time>2022-09-19T12:16:00Z</time>
      </trkpt>
      <trkpt lat="47.09202" lon="-0.7999">
        <ele>136</ele>
        <time>2022-09-19T12:16:08Z</time>
      </trkpt>
      <trkpt lat="47.09191" lon="-0.79956">
        <ele>136</ele>
        <time>2022-09-19T12:16:14Z</time>
      </trkpt>
      <trkpt lat="47.09118" lon="-0.79915">
        <ele>136</ele>
        <time>2022-09-19T12:16:32Z</time>
      </trkpt>
      <trkpt lat="47.09125" lon="-0.79865">
        <ele>136</ele>
        <time>2022-09-19T12:16:40Z</time>
      </trkpt>
      <trkpt lat="47.09127" lon="-0.79822">
        <ele>136</ele>
        <time>2022-09-19T12:16:47Z</time>
      </trkpt>
      <trkpt lat="47.09124" lon="-0.79768">
        <ele>136</ele>
        <time>2022-09-19T12:16:56Z</time>
      </trkpt>
      <trkpt lat="47.0913" lon="-0.79708">
        <ele>135</ele>
        <time>2022-09-19T12:17:06Z</time>
      </trkpt>
      <trkpt lat="47.09167" lon="-0.79661">
        <ele>135</ele>
        <time>2022-09-19T12:17:17Z</time>
      </trkpt>
      <trkpt lat="47.09168" lon="-0.79613">
        <ele>134</ele>
        <time>2022-09-19T12:17:25Z</time>
      </trkpt>
      <trkpt lat="47.0916" lon="-0.79503">
        <ele>135</ele>
        <time>2022-09-19T12:17:42Z</time>
      </trkpt>
      <trkpt lat="47.0915" lon="-0.79446">
        <ele>133</ele>
        <time>2022-09-19T12:17:52Z</time>
      </trkpt>
      <trkpt lat="47.09151" lon="-0.79413">
        <ele>133</ele>
        <time>2022-09-19T12:17:57Z</time>
      </trkpt>
      <trkpt lat="47.09206" lon="-0.79406">
        <ele>133</ele>
        <time>2022-09-19T12:18:10Z</time>
      </trkpt>
      <trkpt lat="47.09359" lon="-0.79389">
        <ele>135</ele>
        <time>2022-09-19T12:18:46Z</time>
      </trkpt>
      <trkpt lat="47.09391" lon="-0.79315">
        <ele>136</ele>
        <time>2022-09-19T12:18:59Z</time>
      </trkpt>
      <trkpt lat="47.09419" lon="-0.79184">
        <ele>135</ele>
        <time>2022-09-19T12:19:21Z</time>
      </trkpt>
      <trkpt lat="47.09434" lon="-0.79127">
        <ele>136</ele>
        <time>2022-09-19T12:19:31Z</time>
      </trkpt>
      <trkpt lat="47.09474" lon="-0.79065">
        <ele>138</ele>
        <time>2022-09-19T12:19:45Z</time>
      </trkpt>
      <trkpt lat="47.09483" lon="-0.79036">
        <ele>138</ele>
        <time>2022-09-19T12:19:50Z</time>
      </trkpt>
      <trkpt lat="47.09513" lon="-0.79046">
        <ele>138</ele>
        <time>2022-09-19T12:19:57Z</time>
      </trkpt>
      <trkpt lat="47.09619" lon="-0.79035">
        <ele>140</ele>
        <time>2022-09-19T12:20:22Z</time>
      </trkpt>
      <trkpt lat="47.09644" lon="-0.78921">
        <ele>140</ele>
        <time>2022-09-19T12:20:41Z</time>
      </trkpt>
      <trkpt lat="47.09684" lon="-0.78746">
        <ele>144</ele>
        <time>2022-09-19T12:21:10Z</time>
      </trkpt>
      <trkpt lat="47.09743" lon="-0.78516">
        <ele>145</ele>
        <time>2022-09-19T12:21:49Z</time>
      </trkpt>
      <trkpt lat="47.09704" lon="-0.78472">
        <ele>144</ele>
        <time>2022-09-19T12:22:01Z</time>
      </trkpt>
      <trkpt lat="47.09562" lon="-0.78345">
        <ele>147</ele>
        <time>2022-09-19T12:22:39Z</time>
      </trkpt>
      <trkpt lat="47.09426" lon="-0.78231">
        <ele>151</ele>
        <time>2022-09-19T12:23:16Z</time>
      </trkpt>
      <trkpt lat="47.09395" lon="-0.78201">
        <ele>151</ele>
        <time>2022-09-19T12:23:25Z</time>
      </trkpt>
      <trkpt lat="47.09368" lon="-0.78121">
        <ele>153</ele>
        <time>2022-09-19T12:23:39Z</time>
      </trkpt>
      <trkpt lat="47.09323" lon="-0.77978">
        <ele>156</ele>
        <time>2022-09-19T12:24:04Z</time>
      </trkpt>
      <trkpt lat="47.09197" lon="-0.77591">
        <ele>159</ele>
        <time>2022-09-19T12:25:12Z</time>
      </trkpt>
      <trkpt lat="47.09161" lon="-0.77408">
        <ele>160</ele>
        <time>2022-09-19T12:25:42Z</time>
      </trkpt>
      <trkpt lat="47.09109" lon="-0.77187">
        <ele>158</ele>
        <time>2022-09-19T12:26:20Z</time>
      </trkpt>
      <trkpt lat="47.09057" lon="-0.76948">
        <ele>156</ele>
        <time>2022-09-19T12:26:59Z</time>
      </trkpt>
      <trkpt lat="47.0904" lon="-0.76903">
        <ele>156</ele>
        <time>2022-09-19T12:27:08Z</time>
      </trkpt>
      <trkpt lat="47.09115" lon="-0.76787">
        <ele>159</ele>
        <time>2022-09-19T12:27:33Z</time>
      </trkpt>
      <trkpt lat="47.09159" lon="-0.76735">
        <ele>161</ele>
        <time>2022-09-19T12:27:46Z</time>
      </trkpt>
      <trkpt lat="47.09201" lon="-0.76601">
        <ele>163</ele>
        <time>2022-09-19T12:28:10Z</time>
      </trkpt>
      <trkpt lat="47.09281" lon="-0.76407">
        <ele>163</ele>
        <time>2022-09-19T12:28:46Z</time>
      </trkpt>
      <trkpt lat="47.09297" lon="-0.76385">
        <ele>163</ele>
        <time>2022-09-19T12:28:51Z</time>
      </trkpt>
      <trkpt lat="47.0929" lon="-0.76347">
        <ele>163</ele>
        <time>2022-09-19T12:28:57Z</time>
      </trkpt>
      <trkpt lat="47.09298" lon="-0.76299">
        <ele>163</ele>
        <time>2022-09-19T12:29:05Z</time>
      </trkpt>
      <trkpt lat="47.09339" lon="-0.76167">
        <ele>165</ele>
        <time>2022-09-19T12:29:28Z</time>
      </trkpt>
      <trkpt lat="47.09368" lon="-0.76086">
        <ele>167</ele>
        <time>2022-09-19T12:29:43Z</time>
      </trkpt>
      <trkpt lat="47.09411" lon="-0.75978">
        <ele>170</ele>
        <time>2022-09-19T12:30:03Z</time>
      </trkpt>
      <trkpt lat="47.0945" lon="-0.75879">
        <ele>170</ele>
        <time>2022-09-19T12:30:21Z</time>
      </trkpt>
      <trkpt lat="47.09402" lon="-0.75506">
        <ele>173</ele>
        <time>2022-09-19T12:31:21Z</time>
      </trkpt>
      <trkpt lat="47.09379" lon="-0.75438">
        <ele>172</ele>
        <time>2022-09-19T12:31:33Z</time>
      </trkpt>
      <trkpt lat="47.09396" lon="-0.75341">
        <ele>172</ele>
        <time>2022-09-19T12:31:49Z</time>
      </trkpt>
      <trkpt lat="47.09361" lon="-0.75183">
        <ele>170</ele>
        <time>2022-09-19T12:32:15Z</time>
      </trkpt>
      <trkpt lat="47.09351" lon="-0.75089">
        <ele>169</ele>
        <time>2022-09-19T12:32:31Z</time>
      </trkpt>
      <trkpt lat="47.09361" lon="-0.74912">
        <ele>167</ele>
        <time>2022-09-19T12:32:59Z</time>
      </trkpt>
      <trkpt lat="47.09361" lon="-0.74784">
        <ele>168</ele>
        <time>2022-09-19T12:33:19Z</time>
      </trkpt>
      <trkpt lat="47.09339" lon="-0.74571">
        <ele>169</ele>
        <time>2022-09-19T12:33:53Z</time>
      </trkpt>
      <trkpt lat="47.09325" lon="-0.74389">
        <ele>172</ele>
        <time>2022-09-19T12:34:23Z</time>
      </trkpt>
      <trkpt lat="47.09316" lon="-0.74267">
        <ele>173</ele>
        <time>2022-09-19T12:34:42Z</time>
      </trkpt>
      <trkpt lat="47.09294" lon="-0.74179">
        <ele>175</ele>
        <time>2022-09-19T12:34:57Z</time>
      </trkpt>
      <trkpt lat="47.09293" lon="-0.74082">
        <ele>178</ele>
        <time>2022-09-19T12:35:12Z</time>
      </trkpt>
      <trkpt lat="47.09269" lon="-0.74022">
        <ele>180</ele>
        <time>2022-09-19T12:35:23Z</time>
      </trkpt>
      <trkpt lat="47.09301" lon="-0.7392">
        <ele>180</ele>
        <time>2022-09-19T12:35:41Z</time>
      </trkpt>
      <trkpt lat="47.09312" lon="-0.73859">
        <ele>181</ele>
        <time>2022-09-19T12:35:51Z</time>
      </trkpt>
      <trkpt lat="47.09312" lon="-0.738">
        <ele>182</ele>
        <time>2022-09-19T12:36:01Z</time>
      </trkpt>
      <trkpt lat="47.09323" lon="-0.73652">
        <ele>184</ele>
        <time>2022-09-19T12:36:24Z</time>
      </trkpt>
      <trkpt lat="47.09349" lon="-0.73474">
        <ele>183</ele>
        <time>2022-09-19T12:36:53Z</time>
      </trkpt>
      <trkpt lat="47.09302" lon="-0.73471">
        <ele>184</ele>
        <time>2022-09-19T12:37:04Z</time>
      </trkpt>
      <trkpt lat="47.0927" lon="-0.73512">
        <ele>185</ele>
        <time>2022-09-19T12:37:14Z</time>
      </trkpt>
      <trkpt lat="47.09245" lon="-0.7352">
        <ele>186</ele>
        <time>2022-09-19T12:37:20Z</time>
      </trkpt>
      <trkpt lat="47.09224" lon="-0.73514">
        <ele>188</ele>
        <time>2022-09-19T12:37:25Z</time>
      </trkpt>
      <trkpt lat="47.09156" lon="-0.73626">
        <ele>190</ele>
        <time>2022-09-19T12:37:49Z</time>
      </trkpt>
      <trkpt lat="47.09107" lon="-0.73717">
        <ele>191</ele>
        <time>2022-09-19T12:38:08Z</time>
      </trkpt>
      <trkpt lat="47.0906" lon="-0.73846">
        <ele>192</ele>
        <time>2022-09-19T12:38:31Z</time>
      </trkpt>
      <trkpt lat="47.08953" lon="-0.7389">
        <ele>194</ele>
        <time>2022-09-19T12:38:57Z</time>
      </trkpt>
      <trkpt lat="47.08874" lon="-0.73924">
        <ele>192</ele>
        <time>2022-09-19T12:39:16Z</time>
      </trkpt>
      <trkpt lat="47.08784" lon="-0.73964">
        <ele>185</ele>
        <time>2022-09-19T12:39:38Z</time>
      </trkpt>
      <trkpt lat="47.08682" lon="-0.7397">
        <ele>183</ele>
        <time>2022-09-19T12:40:02Z</time>
      </trkpt>
      <trkpt lat="47.0854" lon="-0.73982">
        <ele>185</ele>
        <time>2022-09-19T12:40:35Z</time>
      </trkpt>
      <trkpt lat="47.0843" lon="-0.73995">
        <ele>184</ele>
        <time>2022-09-19T12:41:01Z</time>
      </trkpt>
      <trkpt lat="47.08476" lon="-0.74181">
        <ele>183</ele>
        <time>2022-09-19T12:41:32Z</time>
      </trkpt>
      <trkpt lat="47.08463" lon="-0.74212">
        <ele>183</ele>
        <time>2022-09-19T12:41:38Z</time>
      </trkpt>
      <trkpt lat="47.08419" lon="-0.74245">
        <ele>185</ele>
        <time>2022-09-19T12:41:50Z</time>
      </trkpt>
      <trkpt lat="47.08385" lon="-0.74259">
        <ele>185</ele>
        <time>2022-09-19T12:41:58Z</time>
      </trkpt>
      <trkpt lat="47.0835" lon="-0.74319">
        <ele>185</ele>
        <time>2022-09-19T12:42:10Z</time>
      </trkpt>
      <trkpt lat="47.08266" lon="-0.74559">
        <ele>178</ele>
        <time>2022-09-19T12:42:53Z</time>
      </trkpt>
      <trkpt lat="47.08329" lon="-0.74766">
        <ele>176</ele>
        <time>2022-09-19T12:43:29Z</time>
      </trkpt>
      <trkpt lat="47.08363" lon="-0.74869">
        <ele>173</ele>
        <time>2022-09-19T12:43:48Z</time>
      </trkpt>
      <trkpt lat="47.08509" lon="-0.75164">
        <ele>172</ele>
        <time>2022-09-19T12:44:46Z</time>
      </trkpt>
      <trkpt lat="47.08575" lon="-0.75296">
        <ele>176</ele>
        <time>2022-09-19T12:45:12Z</time>
      </trkpt>
      <trkpt lat="47.08617" lon="-0.75519">
        <ele>175</ele>
        <time>2022-09-19T12:45:48Z</time>
      </trkpt>
      <trkpt lat="47.08643" lon="-0.75614">
        <ele>176</ele>
        <time>2022-09-19T12:46:05Z</time>
      </trkpt>
      <trkpt lat="47.08627" lon="-0.75694">
        <ele>175</ele>
        <time>2022-09-19T12:46:18Z</time>
      </trkpt>
      <trkpt lat="47.08587" lon="-0.75761">
        <ele>175</ele>
        <time>2022-09-19T12:46:32Z</time>
      </trkpt>
      <trkpt lat="47.08527" lon="-0.75846">
        <ele>175</ele>
        <time>2022-09-19T12:46:52Z</time>
      </trkpt>
      <trkpt lat="47.08489" lon="-0.75908">
        <ele>176</ele>
        <time>2022-09-19T12:47:05Z</time>
      </trkpt>
      <trkpt lat="47.08438" lon="-0.75978">
        <ele>177</ele>
        <time>2022-09-19T12:47:21Z</time>
      </trkpt>
      <trkpt lat="47.08387" lon="-0.76098">
        <ele>176</ele>
        <time>2022-09-19T12:47:44Z</time>
      </trkpt>
      <trkpt lat="47.08354" lon="-0.76218">
        <ele>173</ele>
        <time>2022-09-19T12:48:04Z</time>
      </trkpt>
      <trkpt lat="47.08331" lon="-0.76354">
        <ele>174</ele>
        <time>2022-09-19T12:48:26Z</time>
      </trkpt>
      <trkpt lat="47.08328" lon="-0.76402">
        <ele>175</ele>
        <time>2022-09-19T12:48:34Z</time>
      </trkpt>
      <trkpt lat="47.0832" lon="-0.76454">
        <ele>173</ele>
        <time>2022-09-19T12:48:43Z</time>
      </trkpt>
      <trkpt lat="47.08325" lon="-0.76593">
        <ele>169</ele>
        <time>2022-09-19T12:49:05Z</time>
      </trkpt>
      <trkpt lat="47.08328" lon="-0.76734">
        <ele>169</ele>
        <time>2022-09-19T12:49:27Z</time>
      </trkpt>
      <trkpt lat="47.08345" lon="-0.76782">
        <ele>170</ele>
        <time>2022-09-19T12:49:36Z</time>
      </trkpt>
      <trkpt lat="47.08343" lon="-0.76842">
        <ele>170</ele>
        <time>2022-09-19T12:49:45Z</time>
      </trkpt>
      <trkpt lat="47.08318" lon="-0.769">
        <ele>170</ele>
        <time>2022-09-19T12:49:56Z</time>
      </trkpt>
      <trkpt lat="47.08301" lon="-0.77024">
        <ele>170</ele>
        <time>2022-09-19T12:50:16Z</time>
      </trkpt>
      <trkpt lat="47.08312" lon="-0.77128">
        <ele>170</ele>
        <time>2022-09-19T12:50:33Z</time>
      </trkpt>
      <trkpt lat="47.08328" lon="-0.77212">
        <ele>168</ele>
        <time>2022-09-19T12:50:47Z</time>
      </trkpt>
      <trkpt lat="47.08294" lon="-0.773">
        <ele>167</ele>
        <time>2022-09-19T12:51:03Z</time>
      </trkpt>
      <trkpt lat="47.08264" lon="-0.77375">
        <ele>166</ele>
        <time>2022-09-19T12:51:17Z</time>
      </trkpt>
      <trkpt lat="47.0824" lon="-0.77435">
        <ele>165</ele>
        <time>2022-09-19T12:51:28Z</time>
      </trkpt>
      <trkpt lat="47.07925" lon="-0.78441">
        <ele>164</ele>
        <time>2022-09-19T12:54:24Z</time>
      </trkpt>
      <trkpt lat="47.07617" lon="-0.78994">
        <ele>163</ele>
        <time>2022-09-19T12:56:18Z</time>
      </trkpt>
      <trkpt lat="47.07255" lon="-0.79646">
        <ele>155</ele>
        <time>2022-09-19T12:58:31Z</time>
      </trkpt>
      <trkpt lat="47.07241" lon="-0.79692">
        <ele>154</ele>
        <time>2022-09-19T12:58:39Z</time>
      </trkpt>
      <trkpt lat="47.07232" lon="-0.7973">
        <ele>154</ele>
        <time>2022-09-19T12:58:46Z</time>
      </trkpt>
      <trkpt lat="47.07214" lon="-0.80016">
        <ele>146</ele>
        <time>2022-09-19T12:59:32Z</time>
      </trkpt>
      <trkpt lat="47.07191" lon="-0.80492">
        <ele>137</ele>
        <time>2022-09-19T13:00:47Z</time>
      </trkpt>
      <trkpt lat="47.07082" lon="-0.80665">
        <ele>137</ele>
        <time>2022-09-19T13:01:25Z</time>
      </trkpt>
      <trkpt lat="47.0693" lon="-0.80824">
        <ele>135</ele>
        <time>2022-09-19T13:02:08Z</time>
      </trkpt>
      <trkpt lat="47.06812" lon="-0.81041">
        <ele>135</ele>
        <time>2022-09-19T13:02:53Z</time>
      </trkpt>
      <trkpt lat="47.06738" lon="-0.81221">
        <ele>132</ele>
        <time>2022-09-19T13:03:26Z</time>
      </trkpt>
      <trkpt lat="47.06682" lon="-0.81215">
        <ele>132</ele>
        <time>2022-09-19T13:03:39Z</time>
      </trkpt>
      <trkpt lat="47.06347" lon="-0.81209">
        <ele>137</ele>
        <time>2022-09-19T13:04:57Z</time>
      </trkpt>
      <trkpt lat="47.06326" lon="-0.81237">
        <ele>138</ele>
        <time>2022-09-19T13:05:04Z</time>
      </trkpt>
      <trkpt lat="47.05857" lon="-0.81243">
        <ele>145</ele>
        <time>2022-09-19T13:06:54Z</time>
      </trkpt>
      <trkpt lat="47.05829" lon="-0.812">
        <ele>146</ele>
        <time>2022-09-19T13:07:03Z</time>
      </trkpt>
      <trkpt lat="47.05713" lon="-0.81252">
        <ele>149</ele>
        <time>2022-09-19T13:07:31Z</time>
      </trkpt>
      <trkpt lat="47.05572" lon="-0.81322">
        <ele>151</ele>
        <time>2022-09-19T13:08:06Z</time>
      </trkpt>
      <trkpt lat="47.05489" lon="-0.81306">
        <ele>150</ele>
        <time>2022-09-19T13:08:26Z</time>
      </trkpt>
      <trkpt lat="47.05425" lon="-0.81238">
        <ele>148</ele>
        <time>2022-09-19T13:08:44Z</time>
      </trkpt>
      <trkpt lat="47.05294" lon="-0.81262">
        <ele>144</ele>
        <time>2022-09-19T13:09:15Z</time>
      </trkpt>
      <trkpt lat="47.05129" lon="-0.81255">
        <ele>139</ele>
        <time>2022-09-19T13:09:54Z</time>
      </trkpt>
      <trkpt lat="47.051" lon="-0.81264">
        <ele>138</ele>
        <time>2022-09-19T13:10:00Z</time>
      </trkpt>
      <trkpt lat="47.05086" lon="-0.8125">
        <ele>138</ele>
        <time>2022-09-19T13:10:04Z</time>
      </trkpt>
      <trkpt lat="47.04949" lon="-0.8132">
        <ele>132</ele>
        <time>2022-09-19T13:10:38Z</time>
      </trkpt>
      <trkpt lat="47.04891" lon="-0.81416">
        <ele>129</ele>
        <time>2022-09-19T13:10:59Z</time>
      </trkpt>
      <trkpt lat="47.04866" lon="-0.81416">
        <ele>128</ele>
        <time>2022-09-19T13:11:05Z</time>
      </trkpt>
      <trkpt lat="47.0486" lon="-0.81446">
        <ele>128</ele>
        <time>2022-09-19T13:11:10Z</time>
      </trkpt>
      <trkpt lat="47.04708" lon="-0.81575">
        <ele>121</ele>
        <time>2022-09-19T13:11:51Z</time>
      </trkpt>
      <trkpt lat="47.04647" lon="-0.81613">
        <ele>120</ele>
        <time>2022-09-19T13:12:06Z</time>
      </trkpt>
      <trkpt lat="47.04622" lon="-0.81611">
        <ele>120</ele>
        <time>2022-09-19T13:12:12Z</time>
      </trkpt>
      <trkpt lat="47.04587" lon="-0.81683">
        <ele>120</ele>
        <time>2022-09-19T13:12:26Z</time>
      </trkpt>
      <trkpt lat="47.04558" lon="-0.8176">
        <ele>120</ele>
        <time>2022-09-19T13:12:40Z</time>
      </trkpt>
      <trkpt lat="47.04544" lon="-0.81792">
        <ele>119</ele>
        <time>2022-09-19T13:12:46Z</time>
      </trkpt>
      <trkpt lat="47.04525" lon="-0.81786">
        <ele>118</ele>
        <time>2022-09-19T13:12:50Z</time>
      </trkpt>
    </trkseg>
  </trk>
</gpx>